KDKK/DKK METAR and TAF weather

Enter ICAO airport designator
Station Type Date Time Source
KDKK METAR 2019/06/18 15:53 UTC NOAA

KDKK 181553Z AUTO 33007KT 10SM CLR 20/14 A2995 RMK AO2 SLP139 T02000139


Station Type Date Time Source
KDKK Decoded METAR 2019/06/18 15:53 UTC NOAA

CHAUTAUQUA COUNTY/DUNKIRK, NY, United States (KDKK) 42-30N 079-17W 202M
Jun 18, 2019 - 11:53 AM EDT / 2019.06.18 1553 UTC
Wind: from the NNW (330 degrees) at 8 MPH (7 KT):0
Visibility: 10 mile(s):0
Sky conditions: clear
Temperature: 68.0 F (20.0 C)
Dew Point: 57.0 F (13.9 C)
Relative Humidity: 67%
Pressure (altimeter): 29.95 in. Hg (1014 hPa)
ob: KDKK 181553Z AUTO 33007KT 10SM CLR 20/14 A2995 RMK AO2 SLP139 T02000139
cycle: 16

Station Type Date Time Source
KDKK TAF UTC NOAA

Error!

Example: see airport list